sensor_id;sensor_type;location;lat;lon;timestamp;temperature;humidity
5023;DHT22;2530;47.990;7.866;2023-08-21T00:00:52;23.30;99.90
5023;DHT22;2530;47.990;7.866;2023-08-21T00:03:18;23.20;99.90
5023;DHT22;2530;47.990;7.866;2023-08-21T00:05:43;23.10;99.90
5023;DHT22;2530;47.990;7.866;2023-08-21T00:08:09;23.20;99.90
5023;DHT22;2530;47.990;7.866;2023-08-21T00:10:37;23.20;99.90
5023;DHT22;2530;47.990;7.866;2023-08-21T00:13:03;22.00;99.90
5023;DHT22;2530;47.990;7.866;2023-08-21T00:15:28;23.10;99.90
5023;DHT22;2530;47.990;7.866;2023-08-21T00:17:54;23.00;99.90
5023;DHT22;2530;47.990;7.866;2023-08-21T00:20:20;23.10;99.90
5023;DHT22;2530;47.990;7.866;2023-08-21T00:22:45;23.10;99.90
5023;DHT22;2530;47.990;7.866;2023-08-21T00:25:11;23.10;99.90
5023;DHT22;2530;47.990;7.866;2023-08-21T00:27:36;21.80;99.90
5023;DHT22;2530;47.990;7.866;2023-08-21T00:30:02;23.30;99.90
5023;DHT22;2530;47.990;7.866;2023-08-21T00:32:27;23.10;99.90
5023;DHT22;2530;47.990;7.866;2023-08-21T00:34:53;23.00;99.90
5023;DHT22;2530;47.990;7.866;2023-08-21T00:37:18;22.50;99.90
5023;DHT22;2530;47.990;7.866;2023-08-21T00:39:45;23.00;99.90
5023;DHT22;2530;47.990;7.866;2023-08-21T00:42:10;23.00;99.90
5023;DHT22;2530;47.990;7.866;2023-08-21T00:44:36;23.20;99.90
5023;DHT22;2530;47.990;7.866;2023-08-21T00:47:01;23.20;99.90
5023;DHT22;2530;47.990;7.866;2023-08-21T00:49:27;23.40;99.90
5023;DHT22;2530;47.990;7.866;2023-08-21T00:51:53;22.60;99.90
5023;DHT22;2530;47.990;7.866;2023-08-21T00:54:19;22.40;99.90
5023;DHT22;2530;47.990;7.866;2023-08-21T00:56:45;22.80;99.90
5023;DHT22;2530;47.990;7.866;2023-08-21T00:59:11;22.70;99.90
5023;DHT22;2530;47.990;7.866;2023-08-21T01:01:38;22.80;99.90
5023;DHT22;2530;47.990;7.866;2023-08-21T01:04:03;23.00;99.90
5023;DHT22;2530;47.990;7.866;2023-08-21T01:06:29;23.40;99.90
5023;DHT22;2530;47.990;7.866;2023-08-21T01:09:02;22.60;99.90
5023;DHT22;2530;47.990;7.866;2023-08-21T01:11:40;22.60;99.90
5023;DHT22;2530;47.990;7.866;2023-08-21T01:14:47;21.50;99.90
5023;DHT22;2530;47.990;7.866;2023-08-21T01:17:11;23.40;99.90
5023;DHT22;2530;47.990;7.866;2023-08-21T01:19:42;21.30;99.90
5023;DHT22;2530;47.990;7.866;2023-08-21T01:22:08;22.60;99.90
5023;DHT22;2530;47.990;7.866;2023-08-21T01:24:34;22.50;99.90
5023;DHT22;2530;47.990;7.866;2023-08-21T01:27:00;22.70;99.90
5023;DHT22;2530;47.990;7.866;2023-08-21T01:29:26;21.60;99.90
5023;DHT22;2530;47.990;7.866;2023-08-21T01:31:58;22.40;99.90
5023;DHT22;2530;47.990;7.866;2023-08-21T01:34:26;23.30;99.90
5023;DHT22;2530;47.990;7.866;2023-08-21T01:36:54;21.30;99.90
5023;DHT22;2530;47.990;7.866;2023-08-21T01:39:20;22.40;99.90
5023;DHT22;2530;47.990;7.866;2023-08-21T01:41:45;22.30;99.90
5023;DHT22;2530;47.990;7.866;2023-08-21T01:44:11;21.60;99.90
5023;DHT22;2530;47.990;7.866;2023-08-21T01:46:36;22.30;99.90
5023;DHT22;2530;47.990;7.866;2023-08-21T01:49:02;22.10;99.90
5023;DHT22;2530;47.990;7.866;2023-08-21T01:51:27;22.20;99.90
5023;DHT22;2530;47.990;7.866;2023-08-21T01:53:53;22.10;99.90
5023;DHT22;2530;47.990;7.866;2023-08-21T01:56:18;22.10;99.90
5023;DHT22;2530;47.990;7.866;2023-08-21T01:58:44;21.30;99.90
5023;DHT22;2530;47.990;7.866;2023-08-21T02:01:09;22.10;99.90
5023;DHT22;2530;47.990;7.866;2023-08-21T02:03:35;22.90;99.90
5023;DHT22;2530;47.990;7.866;2023-08-21T02:06:01;22.10;99.90
5023;DHT22;2530;47.990;7.866;2023-08-21T02:08:30;22.10;99.90
5023;DHT22;2530;47.990;7.866;2023-08-21T02:10:57;22.20;99.90
5023;DHT22;2530;47.990;7.866;2023-08-21T02:13:23;22.20;99.90
5023;DHT22;2530;47.990;7.866;2023-08-21T02:15:48;21.30;99.90
5023;DHT22;2530;47.990;7.866;2023-08-21T02:18:14;22.20;99.90
5023;DHT22;2530;47.990;7.866;2023-08-21T02:20:40;22.20;99.90
5023;DHT22;2530;47.990;7.866;2023-08-21T02:23:06;22.80;99.90
5023;DHT22;2530;47.990;7.866;2023-08-21T02:25:32;22.20;99.90
5023;DHT22;2530;47.990;7.866;2023-08-21T02:27:58;21.30;99.90
5023;DHT22;2530;47.990;7.866;2023-08-21T02:30:23;21.50;99.90
5023;DHT22;2530;47.990;7.866;2023-08-21T02:32:51;21.20;99.90
5023;DHT22;2530;47.990;7.866;2023-08-21T02:35:17;22.10;99.90
5023;DHT22;2530;47.990;7.866;2023-08-21T02:37:43;21.90;99.90
5023;DHT22;2530;47.990;7.866;2023-08-21T02:40:08;21.60;99.90
5023;DHT22;2530;47.990;7.866;2023-08-21T02:42:34;22.00;99.90
5023;DHT22;2530;47.990;7.866;2023-08-21T02:45:00;21.60;99.90
5023;DHT22;2530;47.990;7.866;2023-08-21T02:47:29;21.90;99.90
5023;DHT22;2530;47.990;7.866;2023-08-21T02:49:55;21.90;99.90
5023;DHT22;2530;47.990;7.866;2023-08-21T02:52:20;22.00;99.90
5023;DHT22;2530;47.990;7.866;2023-08-21T02:54:46;21.90;99.90
5023;DHT22;2530;47.990;7.866;2023-08-21T02:57:11;21.80;99.90
5023;DHT22;2530;47.990;7.866;2023-08-21T02:59:37;21.40;99.90
5023;DHT22;2530;47.990;7.866;2023-08-21T03:02:02;22.00;99.90
5023;DHT22;2530;47.990;7.866;2023-08-21T03:04:28;22.00;99.90
5023;DHT22;2530;47.990;7.866;2023-08-21T03:06:53;21.90;99.90
5023;DHT22;2530;47.990;7.866;2023-08-21T03:09:19;21.90;99.90
5023;DHT22;2530;47.990;7.866;2023-08-21T03:11:44;21.80;99.90
5023;DHT22;2530;47.990;7.866;2023-08-21T03:14:10;21.70;99.90
5023;DHT22;2530;47.990;7.866;2023-08-21T03:16:35;21.80;99.90
5023;DHT22;2530;47.990;7.866;2023-08-21T03:19:01;21.80;99.90
5023;DHT22;2530;47.990;7.866;2023-08-21T03:21:27;21.80;99.90
5023;DHT22;2530;47.990;7.866;2023-08-21T03:23:57;22.20;99.90
5023;DHT22;2530;47.990;7.866;2023-08-21T03:26:24;21.70;99.90
5023;DHT22;2530;47.990;7.866;2023-08-21T03:28:50;21.40;99.90
5023;DHT22;2530;47.990;7.866;2023-08-21T03:31:15;20.90;99.90
5023;DHT22;2530;47.990;7.866;2023-08-21T03:33:41;21.60;99.90
5023;DHT22;2530;47.990;7.866;2023-08-21T03:36:06;21.60;99.90
5023;DHT22;2530;47.990;7.866;2023-08-21T03:38:32;21.50;99.90
5023;DHT22;2530;47.990;7.866;2023-08-21T03:40:59;21.70;99.90
5023;DHT22;2530;47.990;7.866;2023-08-21T03:43:25;21.50;99.90
5023;DHT22;2530;47.990;7.866;2023-08-21T03:45:51;20.80;99.90
5023;DHT22;2530;47.990;7.866;2023-08-21T03:48:16;21.60;99.90
5023;DHT22;2530;47.990;7.866;2023-08-21T03:50:42;20.60;99.90
5023;DHT22;2530;47.990;7.866;2023-08-21T03:53:07;21.50;99.90
5023;DHT22;2530;47.990;7.866;2023-08-21T03:55:33;21.50;99.90
5023;DHT22;2530;47.990;7.866;2023-08-21T03:58:00;21.50;99.90
5023;DHT22;2530;47.990;7.866;2023-08-21T04:00:26;21.50;99.90
5023;DHT22;2530;47.990;7.866;2023-08-21T04:02:51;20.40;99.90
5023;DHT22;2530;47.990;7.866;2023-08-21T04:05:17;21.30;99.90
5023;DHT22;2530;47.990;7.866;2023-08-21T04:07:42;20.60;99.90
5023;DHT22;2530;47.990;7.866;2023-08-21T04:10:08;21.30;99.90
5023;DHT22;2530;47.990;7.866;2023-08-21T04:12:33;21.30;99.90
5023;DHT22;2530;47.990;7.866;2023-08-21T04:14:59;21.40;99.90
5023;DHT22;2530;47.990;7.866;2023-08-21T04:17:25;20.70;99.90
5023;DHT22;2530;47.990;7.866;2023-08-21T04:19:51;22.20;99.90
5023;DHT22;2530;47.990;7.866;2023-08-21T04:22:16;21.20;99.90
5023;DHT22;2530;47.990;7.866;2023-08-21T04:24:42;21.20;99.90
5023;DHT22;2530;47.990;7.866;2023-08-21T04:27:08;21.10;99.90
5023;DHT22;2530;47.990;7.866;2023-08-21T04:29:35;20.20;99.90
5023;DHT22;2530;47.990;7.866;2023-08-21T04:32:01;21.10;99.90
5023;DHT22;2530;47.990;7.866;2023-08-21T04:34:26;20.20;99.90
5023;DHT22;2530;47.990;7.866;2023-08-21T04:36:52;20.50;99.90
5023;DHT22;2530;47.990;7.866;2023-08-21T04:39:18;20.40;99.90
5023;DHT22;2530;47.990;7.866;2023-08-21T04:41:43;21.10;99.90
5023;DHT22;2530;47.990;7.866;2023-08-21T04:44:09;21.20;99.90
5023;DHT22;2530;47.990;7.866;2023-08-21T04:46:35;21.20;99.90
5023;DHT22;2530;47.990;7.866;2023-08-21T04:49:00;21.20;99.90
5023;DHT22;2530;47.990;7.866;2023-08-21T04:51:26;20.40;99.90
5023;DHT22;2530;47.990;7.866;2023-08-21T04:53:51;21.20;99.90
5023;DHT22;2530;47.990;7.866;2023-08-21T04:56:17;21.10;99.90
5023;DHT22;2530;47.990;7.866;2023-08-21T04:58:42;21.00;99.90
5023;DHT22;2530;47.990;7.866;2023-08-21T05:01:08;21.00;99.90
5023;DHT22;2530;47.990;7.866;2023-08-21T05:03:34;22.10;99.90
5023;DHT22;2530;47.990;7.866;2023-08-21T05:05:59;20.40;99.90
5023;DHT22;2530;47.990;7.866;2023-08-21T05:08:25;21.20;99.90
5023;DHT22;2530;47.990;7.866;2023-08-21T05:10:55;21.10;99.90
5023;DHT22;2530;47.990;7.866;2023-08-21T05:13:21;21.20;99.90
5023;DHT22;2530;47.990;7.866;2023-08-21T05:15:54;20.10;99.90
5023;DHT22;2530;47.990;7.866;2023-08-21T05:18:21;20.80;99.90
5023;DHT22;2530;47.990;7.866;2023-08-21T05:20:47;23.40;99.90
5023;DHT22;2530;47.990;7.866;2023-08-21T05:23:13;21.70;99.90
5023;DHT22;2530;47.990;7.866;2023-08-21T05:25:39;21.60;99.90
5023;DHT22;2530;47.990;7.866;2023-08-21T05:28:05;22.80;99.90
5023;DHT22;2530;47.990;7.866;2023-08-21T05:30:31;21.40;99.90
5023;DHT22;2530;47.990;7.866;2023-08-21T05:32:56;20.80;99.90
5023;DHT22;2530;47.990;7.866;2023-08-21T05:35:22;21.50;99.90
5023;DHT22;2530;47.990;7.866;2023-08-21T05:37:48;20.50;99.90
5023;DHT22;2530;47.990;7.866;2023-08-21T05:40:13;21.50;99.90
5023;DHT22;2530;47.990;7.866;2023-08-21T05:42:39;21.50;99.90
5023;DHT22;2530;47.990;7.866;2023-08-21T05:45:05;21.50;99.90
5023;DHT22;2530;47.990;7.866;2023-08-21T05:47:31;21.70;99.90
5023;DHT22;2530;47.990;7.866;2023-08-21T05:49:56;21.60;99.90
5023;DHT22;2530;47.990;7.866;2023-08-21T05:52:22;21.70;99.90
5023;DHT22;2530;47.990;7.866;2023-08-21T05:54:48;21.70;99.90
5023;DHT22;2530;47.990;7.866;2023-08-21T05:57:14;21.70;99.90
5023;DHT22;2530;47.990;7.866;2023-08-21T05:59:46;21.80;99.90
5023;DHT22;2530;47.990;7.866;2023-08-21T06:02:13;22.00;99.90
5023;DHT22;2530;47.990;7.866;2023-08-21T06:04:40;21.00;99.90
5023;DHT22;2530;47.990;7.866;2023-08-21T06:07:06;21.70;99.90
5023;DHT22;2530;47.990;7.866;2023-08-21T06:09:31;21.90;99.90
5023;DHT22;2530;47.990;7.866;2023-08-21T06:12:00;21.80;99.90
5023;DHT22;2530;47.990;7.866;2023-08-21T06:14:26;23.10;99.90
5023;DHT22;2530;47.990;7.866;2023-08-21T06:16:59;21.40;99.90
5023;DHT22;2530;47.990;7.866;2023-08-21T06:19:24;22.30;99.90
5023;DHT22;2530;47.990;7.866;2023-08-21T06:21:50;23.00;99.90
5023;DHT22;2530;47.990;7.866;2023-08-21T06:24:16;22.40;99.90
5023;DHT22;2530;47.990;7.866;2023-08-21T06:26:41;22.80;99.90
5023;DHT22;2530;47.990;7.866;2023-08-21T06:29:07;22.40;99.90
5023;DHT22;2530;47.990;7.866;2023-08-21T06:31:32;21.70;99.90
5023;DHT22;2530;47.990;7.866;2023-08-21T06:33:58;22.60;99.90
5023;DHT22;2530;47.990;7.866;2023-08-21T06:36:24;21.80;99.90
5023;DHT22;2530;47.990;7.866;2023-08-21T06:38:49;23.60;99.90
5023;DHT22;2530;47.990;7.866;2023-08-21T06:41:15;25.20;99.90
5023;DHT22;2530;47.990;7.866;2023-08-21T06:43:40;23.00;99.90
5023;DHT22;2530;47.990;7.866;2023-08-21T06:46:07;23.00;99.90
5023;DHT22;2530;47.990;7.866;2023-08-21T06:48:32;23.10;99.90
5023;DHT22;2530;47.990;7.866;2023-08-21T06:50:58;22.20;99.90
5023;DHT22;2530;47.990;7.866;2023-08-21T06:53:24;23.20;99.90
5023;DHT22;2530;47.990;7.866;2023-08-21T06:55:49;22.80;99.90
5023;DHT22;2530;47.990;7.866;2023-08-21T06:58:15;23.00;99.90
5023;DHT22;2530;47.990;7.866;2023-08-21T07:00:40;22.40;99.90
5023;DHT22;2530;47.990;7.866;2023-08-21T07:03:06;24.30;99.90
5023;DHT22;2530;47.990;7.866;2023-08-21T07:05:34;23.70;99.90
5023;DHT22;2530;47.990;7.866;2023-08-21T07:08:00;22.30;99.90
5023;DHT22;2530;47.990;7.866;2023-08-21T07:10:25;23.80;99.90
5023;DHT22;2530;47.990;7.866;2023-08-21T07:12:52;24.10;99.90
5023;DHT22;2530;47.990;7.866;2023-08-21T07:15:18;23.10;99.90
5023;DHT22;2530;47.990;7.866;2023-08-21T07:17:43;25.20;99.90
5023;DHT22;2530;47.990;7.866;2023-08-21T07:20:09;24.60;99.90
5023;DHT22;2530;47.990;7.866;2023-08-21T07:22:35;24.60;99.90
5023;DHT22;2530;47.990;7.866;2023-08-21T07:25:01;26.20;99.90
5023;DHT22;2530;47.990;7.866;2023-08-21T07:27:32;24.70;99.90
5023;DHT22;2530;47.990;7.866;2023-08-21T07:29:57;24.90;99.90
5023;DHT22;2530;47.990;7.866;2023-08-21T07:32:23;25.00;99.90
5023;DHT22;2530;47.990;7.866;2023-08-21T07:34:52;25.70;99.90
5023;DHT22;2530;47.990;7.866;2023-08-21T07:37:19;26.00;99.90
5023;DHT22;2530;47.990;7.866;2023-08-21T07:39:44;27.60;99.90
5023;DHT22;2530;47.990;7.866;2023-08-21T07:42:13;23.40;99.90
5023;DHT22;2530;47.990;7.866;2023-08-21T07:44:39;25.80;99.90
5023;DHT22;2530;47.990;7.866;2023-08-21T07:47:05;24.90;99.90
5023;DHT22;2530;47.990;7.866;2023-08-21T07:49:31;25.00;99.90
5023;DHT22;2530;47.990;7.866;2023-08-21T07:51:57;25.00;99.90
5023;DHT22;2530;47.990;7.866;2023-08-21T07:54:23;25.10;99.90
5023;DHT22;2530;47.990;7.866;2023-08-21T07:56:50;25.10;99.90
5023;DHT22;2530;47.990;7.866;2023-08-21T07:59:15;24.70;99.90
5023;DHT22;2530;47.990;7.866;2023-08-21T08:01:41;26.20;99.90
5023;DHT22;2530;47.990;7.866;2023-08-21T08:04:07;26.10;99.90
5023;DHT22;2530;47.990;7.866;2023-08-21T08:06:32;25.40;99.90
5023;DHT22;2530;47.990;7.866;2023-08-21T08:08:58;25.30;99.90
5023;DHT22;2530;47.990;7.866;2023-08-21T08:11:24;26.40;99.90
5023;DHT22;2530;47.990;7.866;2023-08-21T08:13:49;25.50;99.90
5023;DHT22;2530;47.990;7.866;2023-08-21T08:16:15;26.00;99.90
5023;DHT22;2530;47.990;7.866;2023-08-21T08:18:42;25.50;99.90
5023;DHT22;2530;47.990;7.866;2023-08-21T08:21:07;25.70;99.90
5023;DHT22;2530;47.990;7.866;2023-08-21T08:23:34;25.80;99.90
5023;DHT22;2530;47.990;7.866;2023-08-21T08:25:59;25.60;99.90
5023;DHT22;2530;47.990;7.866;2023-08-21T08:28:25;26.90;99.90
5023;DHT22;2530;47.990;7.866;2023-08-21T08:30:51;28.30;99.90
5023;DHT22;2530;47.990;7.866;2023-08-21T08:33:16;26.20;99.90
5023;DHT22;2530;47.990;7.866;2023-08-21T08:35:42;26.70;99.90
5023;DHT22;2530;47.990;7.866;2023-08-21T08:38:08;26.00;99.90
5023;DHT22;2530;47.990;7.866;2023-08-21T08:40:37;26.20;99.90
5023;DHT22;2530;47.990;7.866;2023-08-21T08:43:03;27.60;99.90
5023;DHT22;2530;47.990;7.866;2023-08-21T08:45:31;26.40;99.90
5023;DHT22;2530;47.990;7.866;2023-08-21T08:48:00;26.40;99.90
5023;DHT22;2530;47.990;7.866;2023-08-21T08:50:29;25.20;99.90
5023;DHT22;2530;47.990;7.866;2023-08-21T08:52:55;26.50;99.90
5023;DHT22;2530;47.990;7.866;2023-08-21T08:55:22;26.70;99.90
5023;DHT22;2530;47.990;7.866;2023-08-21T08:57:47;26.70;99.90
5023;DHT22;2530;47.990;7.866;2023-08-21T09:00:13;26.90;99.90
5023;DHT22;2530;47.990;7.866;2023-08-21T09:02:39;26.70;99.90
5023;DHT22;2530;47.990;7.866;2023-08-21T09:05:05;26.80;99.90
5023;DHT22;2530;47.990;7.866;2023-08-21T09:07:32;26.80;99.90
5023;DHT22;2530;47.990;7.866;2023-08-21T09:09:57;26.80;99.90
5023;DHT22;2530;47.990;7.866;2023-08-21T09:12:23;27.00;99.90
5023;DHT22;2530;47.990;7.866;2023-08-21T09:14:48;27.00;99.90
5023;DHT22;2530;47.990;7.866;2023-08-21T09:17:14;26.90;99.90
5023;DHT22;2530;47.990;7.866;2023-08-21T09:19:40;27.10;99.90
5023;DHT22;2530;47.990;7.866;2023-08-21T09:22:11;27.40;99.90
5023;DHT22;2530;47.990;7.866;2023-08-21T09:24:38;27.10;99.90
5023;DHT22;2530;47.990;7.866;2023-08-21T09:27:03;27.10;99.90
5023;DHT22;2530;47.990;7.866;2023-08-21T09:29:38;27.20;99.90
5023;DHT22;2530;47.990;7.866;2023-08-21T09:32:06;25.30;99.90
5023;DHT22;2530;47.990;7.866;2023-08-21T09:34:35;27.30;99.90
5023;DHT22;2530;47.990;7.866;2023-08-21T09:37:05;27.60;99.90
5023;DHT22;2530;47.990;7.866;2023-08-21T09:41:27;27.80;99.90
5023;DHT22;2530;47.990;7.866;2023-08-21T09:46:27;27.80;99.90
5023;DHT22;2530;47.990;7.866;2023-08-21T09:48:53;28.00;99.90
5023;DHT22;2530;47.990;7.866;2023-08-21T09:51:19;28.10;99.90
5023;DHT22;2530;47.990;7.866;2023-08-21T09:53:48;28.10;99.90
5023;DHT22;2530;47.990;7.866;2023-08-21T09:56:14;28.10;99.90
5023;DHT22;2530;47.990;7.866;2023-08-21T09:58:39;28.90;99.90
5023;DHT22;2530;47.990;7.866;2023-08-21T10:01:07;29.30;99.90
5023;DHT22;2530;47.990;7.866;2023-08-21T10:03:39;28.60;99.90
5023;DHT22;2530;47.990;7.866;2023-08-21T10:06:08;28.50;99.90
5023;DHT22;2530;47.990;7.866;2023-08-21T10:08:38;28.60;99.90
5023;DHT22;2530;47.990;7.866;2023-08-21T10:11:07;28.50;99.90
5023;DHT22;2530;47.990;7.866;2023-08-21T10:13:35;28.40;99.90
5023;DHT22;2530;47.990;7.866;2023-08-21T10:16:01;28.70;99.90
5023;DHT22;2530;47.990;7.866;2023-08-21T10:18:33;28.70;99.90
5023;DHT22;2530;47.990;7.866;2023-08-21T10:21:17;29.20;99.90
5023;DHT22;2530;47.990;7.866;2023-08-21T10:23:47;30.00;99.90
5023;DHT22;2530;47.990;7.866;2023-08-21T10:26:13;28.60;99.90
5023;DHT22;2530;47.990;7.866;2023-08-21T10:28:56;28.70;99.90
5023;DHT22;2530;47.990;7.866;2023-08-21T10:31:33;28.90;99.90
5023;DHT22;2530;47.990;7.866;2023-08-21T10:34:00;29.30;99.90
5023;DHT22;2530;47.990;7.866;2023-08-21T10:37:02;28.80;99.90
5023;DHT22;2530;47.990;7.866;2023-08-21T10:39:28;29.00;99.90
5023;DHT22;2530;47.990;7.866;2023-08-21T10:42:07;29.30;99.90
5023;DHT22;2530;47.990;7.866;2023-08-21T10:50:00;29.30;99.90
5023;DHT22;2530;47.990;7.866;2023-08-21T10:52:39;29.40;99.90
5023;DHT22;2530;47.990;7.866;2023-08-21T10:55:14;29.40;99.90
5023;DHT22;2530;47.990;7.866;2023-08-21T10:57:40;29.50;99.90
5023;DHT22;2530;47.990;7.866;2023-08-21T11:00:14;29.60;99.90
5023;DHT22;2530;47.990;7.866;2023-08-21T11:02:41;29.70;99.90
5023;DHT22;2530;47.990;7.866;2023-08-21T11:05:08;29.60;99.90
5023;DHT22;2530;47.990;7.866;2023-08-21T11:07:44;29.50;99.90
5023;DHT22;2530;47.990;7.866;2023-08-21T11:10:12;29.80;99.90
5023;DHT22;2530;47.990;7.866;2023-08-21T11:12:49;30.10;99.90
5023;DHT22;2530;47.990;7.866;2023-08-21T11:15:16;30.10;99.90
5023;DHT22;2530;47.990;7.866;2023-08-21T11:17:41;30.30;99.90
5023;DHT22;2530;47.990;7.866;2023-08-21T11:22:33;30.70;99.90
5023;DHT22;2530;47.990;7.866;2023-08-21T11:24:59;31.00;99.90
5023;DHT22;2530;47.990;7.866;2023-08-21T11:27:25;30.80;99.90
5023;DHT22;2530;47.990;7.866;2023-08-21T11:29:51;30.80;99.90
5023;DHT22;2530;47.990;7.866;2023-08-21T11:32:22;31.10;99.90
5023;DHT22;2530;47.990;7.866;2023-08-21T11:34:51;31.40;99.90
5023;DHT22;2530;47.990;7.866;2023-08-21T11:37:18;31.70;99.90
5023;DHT22;2530;47.990;7.866;2023-08-21T11:39:47;31.90;99.90
5023;DHT22;2530;47.990;7.866;2023-08-21T11:42:14;33.30;99.90
5023;DHT22;2530;47.990;7.866;2023-08-21T11:44:41;33.40;99.90
5023;DHT22;2530;47.990;7.866;2023-08-21T11:47:06;34.00;99.90
5023;DHT22;2530;47.990;7.866;2023-08-21T11:49:32;32.90;99.90
5023;DHT22;2530;47.990;7.866;2023-08-21T11:51:58;33.60;99.90
5023;DHT22;2530;47.990;7.866;2023-08-21T11:54:23;34.30;99.90
5023;DHT22;2530;47.990;7.866;2023-08-21T11:56:49;34.40;99.90
5023;DHT22;2530;47.990;7.866;2023-08-21T11:59:23;34.90;99.90
5023;DHT22;2530;47.990;7.866;2023-08-21T12:01:52;34.60;99.90
5023;DHT22;2530;47.990;7.866;2023-08-21T12:04:17;34.20;99.90
5023;DHT22;2530;47.990;7.866;2023-08-21T12:06:44;34.10;99.90
5023;DHT22;2530;47.990;7.866;2023-08-21T12:09:10;34.40;99.90
5023;DHT22;2530;47.990;7.866;2023-08-21T12:11:35;33.80;99.90
5023;DHT22;2530;47.990;7.866;2023-08-21T12:14:05;34.20;99.90
5023;DHT22;2530;47.990;7.866;2023-08-21T12:16:31;34.00;99.90
5023;DHT22;2530;47.990;7.866;2023-08-21T12:18:57;34.10;99.90
5023;DHT22;2530;47.990;7.866;2023-08-21T12:21:25;33.80;99.90
5023;DHT22;2530;47.990;7.866;2023-08-21T12:23:51;33.50;99.90
5023;DHT22;2530;47.990;7.866;2023-08-21T12:26:16;33.60;99.90
5023;DHT22;2530;47.990;7.866;2023-08-21T12:28:49;33.40;99.90
5023;DHT22;2530;47.990;7.866;2023-08-21T12:31:15;33.40;99.90
5023;DHT22;2530;47.990;7.866;2023-08-21T12:33:41;33.80;99.90
5023;DHT22;2530;47.990;7.866;2023-08-21T12:36:06;33.40;99.90
5023;DHT22;2530;47.990;7.866;2023-08-21T12:38:34;33.20;99.90
5023;DHT22;2530;47.990;7.866;2023-08-21T12:41:01;33.70;99.90
5023;DHT22;2530;47.990;7.866;2023-08-21T12:43:27;33.20;99.90
5023;DHT22;2530;47.990;7.866;2023-08-21T12:45:52;33.30;99.90
5023;DHT22;2530;47.990;7.866;2023-08-21T12:48:18;33.40;99.90
5023;DHT22;2530;47.990;7.866;2023-08-21T12:50:43;33.30;99.90
5023;DHT22;2530;47.990;7.866;2023-08-21T12:53:09;33.50;99.90
5023;DHT22;2530;47.990;7.866;2023-08-21T12:55:34;33.40;99.90
5023;DHT22;2530;47.990;7.866;2023-08-21T12:58:01;33.30;99.90
5023;DHT22;2530;47.990;7.866;2023-08-21T13:00:26;33.40;99.90
5023;DHT22;2530;47.990;7.866;2023-08-21T13:02:52;33.40;99.90
5023;DHT22;2530;47.990;7.866;2023-08-21T13:05:17;33.50;99.90
5023;DHT22;2530;47.990;7.866;2023-08-21T13:07:43;33.60;99.90
5023;DHT22;2530;47.990;7.866;2023-08-21T13:10:08;33.70;99.90
5023;DHT22;2530;47.990;7.866;2023-08-21T13:12:34;33.60;99.90
5023;DHT22;2530;47.990;7.866;2023-08-21T13:15:00;33.80;99.90
5023;DHT22;2530;47.990;7.866;2023-08-21T13:17:25;33.80;99.90
5023;DHT22;2530;47.990;7.866;2023-08-21T13:19:51;33.50;99.90
5023;DHT22;2530;47.990;7.866;2023-08-21T13:22:17;34.00;99.90
5023;DHT22;2530;47.990;7.866;2023-08-21T13:24:43;33.50;99.90
5023;DHT22;2530;47.990;7.866;2023-08-21T13:27:08;33.30;99.90
5023;DHT22;2530;47.990;7.866;2023-08-21T13:29:34;33.50;99.90
5023;DHT22;2530;47.990;7.866;2023-08-21T13:32:01;33.90;99.90
5023;DHT22;2530;47.990;7.866;2023-08-21T13:36:53;33.20;99.90
5023;DHT22;2530;47.990;7.866;2023-08-21T13:39:18;33.30;99.90
5023;DHT22;2530;47.990;7.866;2023-08-21T13:41:44;33.60;99.90
5023;DHT22;2530;47.990;7.866;2023-08-21T13:44:10;33.70;99.90
5023;DHT22;2530;47.990;7.866;2023-08-21T13:46:35;34.30;99.90
5023;DHT22;2530;47.990;7.866;2023-08-21T13:49:01;33.80;99.90
5023;DHT22;2530;47.990;7.866;2023-08-21T13:51:26;34.10;99.90
5023;DHT22;2530;47.990;7.866;2023-08-21T13:53:52;34.00;99.90
5023;DHT22;2530;47.990;7.866;2023-08-21T13:56:17;34.20;99.90
5023;DHT22;2530;47.990;7.866;2023-08-21T13:58:43;33.70;99.90
5023;DHT22;2530;47.990;7.866;2023-08-21T14:01:08;33.70;99.90
5023;DHT22;2530;47.990;7.866;2023-08-21T14:03:34;33.80;99.90
5023;DHT22;2530;47.990;7.866;2023-08-21T14:06:00;34.50;99.90
5023;DHT22;2530;47.990;7.866;2023-08-21T14:08:26;33.70;99.90
5023;DHT22;2530;47.990;7.866;2023-08-21T14:10:51;33.70;99.90
5023;DHT22;2530;47.990;7.866;2023-08-21T14:13:17;33.80;99.90
5023;DHT22;2530;47.990;7.866;2023-08-21T14:15:43;34.00;99.90
5023;DHT22;2530;47.990;7.866;2023-08-21T14:18:08;34.10;99.90
5023;DHT22;2530;47.990;7.866;2023-08-21T14:20:34;34.00;99.90
5023;DHT22;2530;47.990;7.866;2023-08-21T14:22:59;33.50;99.90
5023;DHT22;2530;47.990;7.866;2023-08-21T14:25:25;33.90;99.90
5023;DHT22;2530;47.990;7.866;2023-08-21T14:27:50;34.30;99.90
5023;DHT22;2530;47.990;7.866;2023-08-21T14:30:16;34.60;99.90
5023;DHT22;2530;47.990;7.866;2023-08-21T14:32:42;34.40;99.90
5023;DHT22;2530;47.990;7.866;2023-08-21T14:35:08;34.60;99.90
5023;DHT22;2530;47.990;7.866;2023-08-21T14:37:37;34.20;99.90
5023;DHT22;2530;47.990;7.866;2023-08-21T14:40:03;34.00;99.90
5023;DHT22;2530;47.990;7.866;2023-08-21T14:42:33;34.30;99.90
5023;DHT22;2530;47.990;7.866;2023-08-21T14:44:59;34.30;99.90
5023;DHT22;2530;47.990;7.866;2023-08-21T14:47:25;34.20;99.90
5023;DHT22;2530;47.990;7.866;2023-08-21T14:49:50;34.20;99.90
5023;DHT22;2530;47.990;7.866;2023-08-21T14:52:16;34.50;99.90
5023;DHT22;2530;47.990;7.866;2023-08-21T14:54:42;34.40;99.90
5023;DHT22;2530;47.990;7.866;2023-08-21T14:57:07;34.00;99.90
5023;DHT22;2530;47.990;7.866;2023-08-21T14:59:33;34.20;99.90
5023;DHT22;2530;47.990;7.866;2023-08-21T15:01:59;34.40;99.90
5023;DHT22;2530;47.990;7.866;2023-08-21T15:04:25;34.30;99.90
5023;DHT22;2530;47.990;7.866;2023-08-21T15:09:16;34.00;99.90
5023;DHT22;2530;47.990;7.866;2023-08-21T15:11:42;33.90;99.90
5023;DHT22;2530;47.990;7.866;2023-08-21T15:14:11;33.90;99.90
5023;DHT22;2530;47.990;7.866;2023-08-21T15:16:38;34.00;99.90
5023;DHT22;2530;47.990;7.866;2023-08-21T15:19:04;34.10;99.90
5023;DHT22;2530;47.990;7.866;2023-08-21T15:21:29;34.00;99.90
5023;DHT22;2530;47.990;7.866;2023-08-21T15:23:55;33.90;99.90
5023;DHT22;2530;47.990;7.866;2023-08-21T15:26:20;33.90;99.90
5023;DHT22;2530;47.990;7.866;2023-08-21T15:28:47;34.30;99.90
5023;DHT22;2530;47.990;7.866;2023-08-21T15:31:13;34.10;99.90
5023;DHT22;2530;47.990;7.866;2023-08-21T15:38:30;33.80;99.90
5023;DHT22;2530;47.990;7.866;2023-08-21T15:40:56;34.30;99.90
5023;DHT22;2530;47.990;7.866;2023-08-21T15:43:21;34.10;99.90
5023;DHT22;2530;47.990;7.866;2023-08-21T15:45:47;33.70;99.90
5023;DHT22;2530;47.990;7.866;2023-08-21T15:48:12;34.10;99.90
5023;DHT22;2530;47.990;7.866;2023-08-21T15:50:38;33.90;99.90
5023;DHT22;2530;47.990;7.866;2023-08-21T15:53:04;33.80;99.90
5023;DHT22;2530;47.990;7.866;2023-08-21T15:55:30;34.00;99.90
5023;DHT22;2530;47.990;7.866;2023-08-21T15:57:55;34.00;99.90
5023;DHT22;2530;47.990;7.866;2023-08-21T16:00:21;33.60;99.90
5023;DHT22;2530;47.990;7.866;2023-08-21T16:02:48;33.70;99.90
5023;DHT22;2530;47.990;7.866;2023-08-21T16:05:13;33.90;99.90
5023;DHT22;2530;47.990;7.866;2023-08-21T16:07:39;33.60;99.90
5023;DHT22;2530;47.990;7.866;2023-08-21T16:10:08;33.60;99.90
5023;DHT22;2530;47.990;7.866;2023-08-21T16:12:34;33.40;99.90
5023;DHT22;2530;47.990;7.866;2023-08-21T16:14:59;33.70;99.90
5023;DHT22;2530;47.990;7.866;2023-08-21T16:17:25;33.30;99.90
5023;DHT22;2530;47.990;7.866;2023-08-21T16:19:51;33.70;99.90